Time;durP1;ratioP1;P1;durP2;ratioP2;P2;SDS_P1;SDS_P2;PMS_P1;PMS_P2;Temp;Humidity;BMP_temperature;BMP_pressure;BME280_temperature;BME280_humidity;BME280_pressure;Samples;Min_cycle;Max_cycle;Signal;HPM_P1;HPM_P2
2021/05/27 00:00:05;;;;;;;;;;;11.30;87.70;;;;;;5017839;28;20069;-69
2021/05/27 00:02:30;;;;;;;3.88;1.75;;;11.30;87.80;;;;;;5012759;28;19913;-70
2021/05/27 00:04:56;;;;;;;;;;;11.30;88.30;;;;;;5017652;28;20037;-69
2021/05/27 00:07:21;;;;;;;5.50;2.22;;;11.30;88.80;;;;;;5015356;28;20055;-69
2021/05/27 00:09:47;;;;;;;;;;;11.20;88.70;;;;;;5013471;28;20073;-69
2021/05/27 00:12:12;;;;;;;6.30;2.63;;;11.20;88.70;;;;;;5007015;28;19963;-69
2021/05/27 00:14:38;;;;;;;;;;;11.20;88.80;;;;;;5013681;28;20388;-69
2021/05/27 00:17:03;;;;;;;5.20;2.90;;;11.20;89.60;;;;;;5017247;28;20463;-69
2021/05/27 00:19:28;;;;;;;;;;;11.20;89.70;;;;;;5020841;28;20038;-69
2021/05/27 00:21:54;;;;;;;4.60;2.17;;;11.20;90.20;;;;;;5036813;28;20007;-69
2021/05/27 00:24:19;;;;;;;;;;;11.10;90.40;;;;;;5019772;28;20499;-69
2021/05/27 00:26:45;;;;;;;4.43;3.22;;;11.10;90.50;;;;;;5020495;28;19962;-69
2021/05/27 00:29:10;;;;;;;;;;;11.10;90.70;;;;;;5003941;28;20036;-69
2021/05/27 00:31:36;;;;;;;3.03;2.72;;;11.10;90.70;;;;;;5013696;28;19920;-69
2021/05/27 00:34:02;;;;;;;;;;;11.10;90.80;;;;;;5003733;28;20038;-69
2021/05/27 00:36:28;;;;;;;5.28;2.33;;;11.00;91.00;;;;;;5020974;28;19959;-69
2021/05/27 00:38:53;;;;;;;;;;;11.00;91.10;;;;;;5018114;28;20037;-69
2021/05/27 00:41:19;;;;;;;7.20;2.45;;;11.00;91.00;;;;;;5020255;28;19917;-69
2021/05/27 00:43:44;;;;;;;;;;;11.00;91.00;;;;;;5020342;28;20435;-69
2021/05/27 00:46:10;;;;;;;7.68;2.60;;;11.00;90.90;;;;;;5021305;28;19920;-69
2021/05/27 00:51:20;;;;;;;2.35;2.15;;;11.00;91.00;;;;;;5016063;28;20396;-68
2021/05/27 00:53:45;;;;;;;;;;;11.00;90.90;;;;;;5021238;28;20030;-68
2021/05/27 00:56:11;;;;;;;2.40;1.80;;;11.00;91.00;;;;;;5019607;28;19909;-68
2021/05/27 00:58:36;;;;;;;;;;;11.00;91.00;;;;;;5019434;28;20508;-68
2021/05/27 01:01:03;;;;;;;2.08;1.85;;;11.00;90.90;;;;;;5020976;28;19909;-68
2021/05/27 01:03:29;;;;;;;4.28;1.73;;;11.00;90.90;;;;;;5019784;28;20065;-68
2021/05/27 01:05:54;;;;;;;;;;;10.90;90.80;;;;;;5016835;28;20073;-68
2021/05/27 01:08:20;;;;;;;2.35;1.65;;;11.00;90.90;;;;;;5013610;28;19916;-68
2021/05/27 01:10:45;;;;;;;;;;;11.00;90.80;;;;;;5019197;28;20030;-68
2021/05/27 01:13:11;;;;;;;3.28;1.75;;;10.90;90.80;;;;;;5018841;28;19917;-68
2021/05/27 01:15:38;;;;;;;;;;;10.90;90.80;;;;;;5019428;28;20076;-68
2021/05/27 01:18:16;;;;;;;1.77;1.67;;;10.90;90.80;;;;;;5017027;28;19909;-68
2021/05/27 01:20:47;;;;;;;4.13;2.13;;;10.90;91.20;;;;;;5017579;28;20033;-68
2021/05/27 01:23:13;;;;;;;2.33;1.42;;;10.90;91.20;;;;;;5020431;28;20351;-68
2021/05/27 01:25:41;;;;;;;1.85;1.73;;;10.90;91.10;;;;;;5018453;28;20018;-68
2021/05/27 01:28:06;;;;;;;1.65;1.45;;;10.90;91.10;;;;;;5014691;28;20022;-68
2021/05/27 01:30:32;;;;;;;;;;;10.80;91.10;;;;;;5016729;28;20504;-68
2021/05/27 01:32:58;;;;;;;2.00;1.40;;;10.90;91.20;;;;;;5034741;28;19909;-68
2021/05/27 01:35:24;;;;;;;;;;;10.80;91.00;;;;;;5015638;28;20049;-68
2021/05/27 01:37:50;;;;;;;2.42;1.13;;;10.80;91.10;;;;;;5013906;28;19910;-68
2021/05/27 01:40:24;;;;;;;2.17;1.25;;;10.90;91.00;;;;;;5019157;28;20031;-68
2021/05/27 01:42:50;;;;;;;2.35;1.25;;;10.90;90.80;;;;;;5020712;28;20026;-68
2021/05/27 01:45:17;;;;;;;;;;;10.90;90.70;;;;;;5017313;28;20036;-68
2021/05/27 01:47:43;;;;;;;2.88;1.00;;;10.90;90.60;;;;;;5018640;28;19962;-68
2021/05/27 01:50:09;;;;;;;;;;;10.90;90.60;;;;;;5015057;28;20033;-68
2021/05/27 01:52:35;;;;;;;2.97;1.10;;;10.90;90.60;;;;;;5019138;28;20015;-68
2021/05/27 01:55:00;;;;;;;;;;;10.80;90.60;;;;;;5015922;28;20112;-68
2021/05/27 01:57:26;;;;;;;1.20;0.88;;;10.90;90.60;;;;;;5018859;28;19920;-68
2021/05/27 01:59:51;;;;;;;;;;;10.80;90.60;;;;;;5016940;28;20033;-68
2021/05/27 02:02:16;;;;;;;1.98;1.40;;;10.80;90.50;;;;;;5016738;28;19913;-69
2021/05/27 02:04:42;;;;;;;;;;;10.90;90.50;;;;;;5018999;28;20047;-69
2021/05/27 02:07:12;;;;;;;1.92;0.90;;;10.90;90.50;;;;;;5018611;28;19963;-69
2021/05/27 02:09:38;;;;;;;5.75;1.77;;;10.90;90.50;;;;;;5002756;28;20091;-68
2021/05/27 02:12:04;;;;;;;;;;;10.80;90.40;;;;;;5017601;28;20022;-68
2021/05/27 02:14:30;;;;;;;1.35;1.00;;;10.90;90.40;;;;;;5020360;28;20445;-68
2021/05/27 02:16:55;;;;;;;;;;;10.90;90.40;;;;;;5018316;28;20041;-68
2021/05/27 02:19:21;;;;;;;3.90;1.80;;;10.90;90.30;;;;;;5017334;28;19909;-68
2021/05/27 02:21:46;;;;;;;;;;;10.90;90.20;;;;;;5018671;28;20064;-68
2021/05/27 02:24:12;;;;;;;2.17;1.17;;;10.90;90.30;;;;;;5015760;28;20419;-69
2021/05/27 02:26:37;;;;;;;;;;;10.90;90.50;;;;;;5017630;28;20040;-69
2021/05/27 02:29:03;;;;;;;4.28;1.33;;;10.80;90.30;;;;;;5013170;28;19952;-69
2021/05/27 02:31:28;;;;;;;;;;;10.90;90.30;;;;;;5017346;28;20460;-69
2021/05/27 02:33:54;;;;;;;1.15;0.47;;;10.80;90.30;;;;;;5018927;28;19916;-68
2021/05/27 02:36:20;;;;;;;;;;;10.90;90.30;;;;;;5018727;28;20038;-69
2021/05/27 02:38:46;;;;;;;1.77;1.02;;;10.90;90.20;;;;;;5017811;28;19932;-69
2021/05/27 02:41:12;;;;;;;;;;;10.90;90.20;;;;;;5016154;28;20072;-69
2021/05/27 02:43:38;;;;;;;0.73;0.68;;;10.90;90.20;;;;;;5017662;28;20383;-69
2021/05/27 02:46:04;;;;;;;;;;;10.90;90.10;;;;;;5019454;28;20038;-69
2021/05/27 02:48:30;;;;;;;1.08;0.75;;;10.90;90.10;;;;;;5028156;28;19923;-68
2021/05/27 02:50:57;;;;;;;2.00;1.08;;;10.90;90.10;;;;;;5017538;28;20060;-68
2021/05/27 02:53:24;;;;;;;0.88;0.60;;;10.90;90.10;;;;;;5019015;28;20125;-68
2021/05/27 02:55:50;;;;;;;1.25;1.10;;;10.90;90.00;;;;;;5017722;28;20037;-69
2021/05/27 02:58:15;;;;;;;;;;;10.90;90.10;;;;;;5017911;28;20389;-68
2021/05/27 03:00:41;;;;;;;2.45;0.90;;;10.90;90.10;;;;;;5016686;28;19917;-68
2021/05/27 03:03:06;;;;;;;;;;;10.90;90.10;;;;;;5018766;28;20212;-68
2021/05/27 03:05:32;;;;;;;2.05;0.93;;;10.90;90.20;;;;;;5014156;28;19928;-68
2021/05/27 03:07:57;;;;;;;;;;;10.90;90.20;;;;;;5018409;28;20504;-69
2021/05/27 03:10:23;;;;;;;1.67;1.05;;;10.90;90.20;;;;;;5019257;28;19913;-68
2021/05/27 03:12:48;;;;;;;;;;;10.90;90.30;;;;;;5018063;28;20033;-69
2021/05/27 03:15:14;;;;;;;2.95;1.05;;;10.90;90.30;;;;;;5019054;28;19909;-69
2021/05/27 03:17:40;;;;;;;;;;;10.90;90.30;;;;;;5018579;28;20029;-68
2021/05/27 03:20:06;;;;;;;1.45;1.15;;;10.90;90.30;;;;;;5015084;28;19909;-68
2021/05/27 03:22:31;;;;;;;3.53;1.23;;;10.90;90.30;;;;;;5014975;28;20026;-68
2021/05/27 03:24:57;;;;;;;;;;;10.90;90.30;;;;;;5018762;28;20033;-68
2021/05/27 03:27:22;;;;;;;2.47;0.80;;;10.90;90.20;;;;;;5018155;28;20036;-68
2021/05/27 03:29:48;;;;;;;;;;;10.90;90.20;;;;;;5017880;28;20075;-68
2021/05/27 03:32:14;;;;;;;1.15;0.80;;;10.90;90.20;;;;;;5018177;28;19909;-68
2021/05/27 03:34:39;;;;;;;;;;;10.90;90.20;;;;;;5017057;28;20034;-68
2021/05/27 03:37:05;;;;;;;1.95;0.70;;;10.90;90.20;;;;;;5017744;28;19909;-68
2021/05/27 03:39:30;;;;;;;;;;;10.90;90.20;;;;;;5018561;28;20057;-68
2021/05/27 03:41:56;;;;;;;3.17;1.00;;;10.90;90.20;;;;;;5018185;28;19988;-68
2021/05/27 03:44:21;;;;;;;;;;;10.90;90.20;;;;;;5018659;28;20033;-68
2021/05/27 03:46:47;;;;;;;1.02;0.73;;;11.00;90.10;;;;;;5017739;28;20477;-68
2021/05/27 03:49:13;;;;;;;;;;;11.00;90.00;;;;;;5017545;28;20057;-68
2021/05/27 03:51:38;;;;;;;1.45;0.70;;;11.00;89.90;;;;;;5015857;28;19916;-68
2021/05/27 03:54:04;;;;;;;;;;;11.00;89.80;;;;;;5021798;28;20040;-68
2021/05/27 03:56:30;;;;;;;0.63;0.45;;;11.00;89.90;;;;;;5020980;28;19917;-69
2021/05/27 04:01:39;;;;;;;1.17;0.40;;;11.00;89.90;;;;;;5016289;28;20375;-68
2021/05/27 04:07:08;;;;;;;0.85;0.40;;;11.00;89.50;;;;;;5022187;28;19961;-68
2021/05/27 04:09:33;;;;;;;1.52;0.68;;;11.00;89.40;;;;;;5017915;28;20022;-68
2021/05/27 04:14:43;;;;;;;0.70;0.57;;;11.00;90.00;;;;;;5021350;28;20024;-68
2021/05/27 04:17:09;;;;;;;;;;;11.00;90.20;;;;;;5021971;28;20528;-68
2021/05/27 04:19:35;;;;;;;1.13;0.68;;;11.00;90.30;;;;;;5019722;28;20384;-69
2021/05/27 04:22:00;;;;;;;;;;;10.90;90.20;;;;;;5022253;28;20045;-69
2021/05/27 04:24:26;;;;;;;0.52;0.40;;;10.90;90.20;;;;;;5020579;28;20327;-69
2021/05/27 04:26:51;;;;;;;;;;;10.90;90.20;;;;;;5021020;28;20036;-69
2021/05/27 04:29:17;;;;;;;1.65;0.50;;;10.90;90.20;;;;;;5021641;28;20340;-68
2021/05/27 04:31:42;;;;;;;0.60;0.40;;;10.80;90.00;;;;;;5020747;28;20030;-68
2021/05/27 04:34:08;;;;;;;;;;;10.90;89.80;;;;;;5021542;28;20050;-71
2021/05/27 04:36:33;;;;;;;1.00;0.50;;;10.90;89.70;;;;;;5020070;28;19916;-72
2021/05/27 04:38:59;;;;;;;;;;;10.90;89.30;;;;;;5019817;28;20087;-73
2021/05/27 04:41:24;;;;;;;8.30;0.52;;;11.00;88.80;;;;;;5019117;28;19952;-74
2021/05/27 04:43:54;;;;;;;;;;;11.00;88.50;;;;;;5021068;28;20104;-73
2021/05/27 04:46:20;;;;;;;6.65;0.65;;;11.00;87.80;;;;;;5018951;28;19914;-73
2021/05/27 04:48:45;;;;;;;;;;;11.00;87.20;;;;;;5019516;28;20034;-69
2021/05/27 04:51:10;;;;;;;40.70;6.35;;;11.00;87.10;;;;;;5020935;28;19976;-70
2021/05/27 04:53:36;;;;;;;;;;;11.00;86.80;;;;;;5037282;28;20501;-71
2021/05/27 04:56:03;;;;;;;1.88;1.05;;;11.00;86.70;;;;;;5020615;28;19963;-71
2021/05/27 04:58:30;;;;;;;2.85;0.40;;;11.00;86.70;;;;;;5017330;28;20109;-71
2021/05/27 05:00:56;;;;;;;2.65;0.20;;;10.90;86.70;;;;;;5018136;28;20136;-71
2021/05/27 05:03:21;;;;;;;2.75;0.63;;;10.90;87.00;;;;;;5019067;28;20029;-70
2021/05/27 05:05:47;;;;;;;;;;;11.00;87.10;;;;;;5021305;28;20408;-70
2021/05/27 05:08:13;;;;;;;0.35;0.20;;;11.00;87.00;;;;;;5018827;28;21502;-70
2021/05/27 05:10:40;;;;;;;;;;;11.00;86.80;;;;;;5019540;28;20060;-70
2021/05/27 05:13:06;;;;;;;;;;;11.10;86.90;;;;;;5020521;28;19909;-71
2021/05/27 05:15:34;;;;;;;0.32;0.25;;;11.10;87.00;;;;;;5017559;28;19935;-69
2021/05/27 05:18:05;;;;;;;1.73;0.15;;;11.20;86.70;;;;;;5018730;28;20030;-70
2021/05/27 05:20:33;;;;;;;1.33;0.43;;;11.20;86.50;;;;;;5018792;28;20038;-70
2021/05/27 05:23:00;;;;;;;0.32;0.20;;;11.30;86.40;;;;;;5017953;28;20471;-71
2021/05/27 05:25:27;;;;;;;0.20;0.13;;;11.30;86.60;;;;;;5002395;28;20065;-72
2021/05/27 05:27:54;;;;;;;1.55;0.40;;;11.30;86.40;;;;;;5016449;28;20505;-70
2021/05/27 05:30:20;;;;;;;3.40;0.28;;;11.40;86.50;;;;;;5017045;28;20072;-70
2021/05/27 05:32:47;;;;;;;2.33;0.35;;;11.30;86.20;;;;;;5019114;28;20034;-71
2021/05/27 05:35:15;;;;;;;0.40;0.32;;;11.40;86.30;;;;;;5018649;28;20029;-68
2021/05/27 05:37:42;;;;;;;0.73;0.20;;;11.50;86.10;;;;;;5018594;28;20032;-69
2021/05/27 05:40:09;;;;;;;1.85;0.85;;;11.80;86.00;;;;;;5018457;28;20492;-69
2021/05/27 05:42:36;;;;;;;2.03;0.30;;;11.90;85.30;;;;;;5033875;28;20046;-69
2021/05/27 05:45:04;;;;;;;0.88;0.30;;;12.10;85.10;;;;;;5019577;28;20072;-70
2021/05/27 05:47:29;;;;;;;3.08;0.22;;;12.30;84.40;;;;;;5017941;28;20477;-69
2021/05/27 05:49:55;;;;;;;;;;;12.70;82.80;;;;;;5020396;28;20045;-70
2021/05/27 05:52:20;;;;;;;18.13;1.15;;;12.90;82.80;;;;;;5020059;28;20452;-70
2021/05/27 05:54:46;;;;;;;;;;;13.10;81.80;;;;;;5020988;28;20459;-70
2021/05/27 05:57:11;;;;;;;26.75;2.65;;;13.10;80.70;;;;;;5019798;28;19928;-70
2021/05/27 05:59:37;;;;;;;;;;;13.00;81.20;;;;;;5020180;28;20030;-70
2021/05/27 06:02:05;;;;;;;51.83;3.15;;;12.90;81.10;;;;;;5020194;28;19912;-70
2021/05/27 06:04:31;;;;;;;24.55;1.45;;;12.90;81.40;;;;;;5014964;28;20063;-69
2021/05/27 06:06:57;;;;;;;;;;;13.00;81.70;;;;;;5012793;28;20030;-70
2021/05/27 06:09:25;;;;;;;28.55;2.10;;;13.00;81.80;;;;;;5013662;28;19909;-69
2021/05/27 06:11:51;;;;;;;73.90;6.40;;;13.00;81.20;;;;;;5019533;28;20022;-69
2021/05/27 06:14:17;;;;;;;24.88;1.63;;;13.10;81.40;;;;;;5019228;28;20362;-69
2021/05/27 06:16:42;;;;;;;;;;;13.10;80.30;;;;;;5018940;28;20065;-69
2021/05/27 06:19:08;;;;;;;27.17;4.13;;;13.10;80.40;;;;;;5018022;28;19912;-69
2021/05/27 06:21:33;;;;;;;;;;;13.20;80.30;;;;;;5020342;28;20025;-69
2021/05/27 06:23:59;;;;;;;46.78;2.80;;;13.30;79.70;;;;;;5016905;28;19917;-73
2021/05/27 06:26:24;;;;;;;;;;;13.40;79.70;;;;;;5027721;28;20026;-76
2021/05/27 06:28:50;;;;;;;25.42;1.77;;;13.40;79.70;;;;;;5018182;28;19920;-75
2021/05/27 06:31:15;;;;;;;;;;;13.40;79.40;;;;;;5020065;28;20021;-75
2021/05/27 06:33:41;;;;;;;9.82;1.70;;;13.30;79.70;;;;;;5018895;28;19913;-75
2021/05/27 06:36:06;;;;;;;;;;;13.30;80.10;;;;;;5017209;28;20030;-74
2021/05/27 06:38:32;;;;;;;14.20;1.35;;;13.20;80.10;;;;;;5016704;28;19917;-74
2021/05/27 06:40:57;;;;;;;;;;;13.10;80.90;;;;;;5031840;28;20030;-74
2021/05/27 06:43:23;;;;;;;20.10;2.15;;;12.90;81.30;;;;;;5019159;28;20370;-74
2021/05/27 06:45:49;;;;;;;;;;;12.80;82.00;;;;;;5018921;28;20499;-74
2021/05/27 06:48:14;;;;;;;73.00;6.63;;;12.80;82.60;;;;;;5032491;28;19925;-75
2021/05/27 06:50:40;;;;;;;;;;;12.80;83.90;;;;;;5018085;28;20480;-72
2021/05/27 06:53:11;;;;;;;11.00;0.88;;;12.70;84.40;;;;;;5017376;28;19909;-71
2021/05/27 06:55:39;;;;;;;20.42;1.20;;;12.70;84.60;;;;;;5019090;28;20029;-71
2021/05/27 06:58:05;;;;;;;14.15;1.00;;;12.60;84.70;;;;;;5015472;28;20168;-71
2021/05/27 07:00:31;;;;;;;1.00;0.40;;;12.50;85.40;;;;;;5016070;28;20024;-71
2021/05/27 07:02:56;;;;;;;;;;;12.50;86.20;;;;;;5017468;28;20034;-71
2021/05/27 07:05:22;;;;;;;10.55;1.08;;;12.50;87.20;;;;;;5016882;28;20872;-70
2021/05/27 07:07:48;;;;;;;;;;;12.50;88.60;;;;;;5003092;28;20049;-72
2021/05/27 07:10:16;;;;;;;21.42;1.60;;;12.40;88.60;;;;;;5017072;28;19909;-72
2021/05/27 07:12:52;;;;;;;52.15;5.90;;;12.30;88.80;;;;;;5017101;28;20038;-71
2021/05/27 07:15:20;;;;;;;30.40;4.05;;;12.30;88.80;;;;;;5016770;28;20033;-71
2021/05/27 07:17:50;;;;;;;40.35;4.38;;;12.20;88.70;;;;;;5016446;28;20030;-71
2021/05/27 07:20:18;;;;;;;23.17;2.33;;;12.30;89.00;;;;;;5017581;28;20048;-71
2021/05/27 07:22:44;;;;;;;11.25;1.65;;;12.40;89.70;;;;;;5016662;28;20119;-71
2021/05/27 07:25:09;;;;;;;;;;;12.40;89.60;;;;;;5017490;28;20503;-72
2021/05/27 07:27:35;;;;;;;10.60;2.17;;;12.50;89.30;;;;;;5016780;28;19913;-73
2021/05/27 07:30:01;;;;;;;;;;;12.50;89.30;;;;;;5018268;28;20032;-73
2021/05/27 07:32:26;;;;;;;14.93;1.45;;;12.50;89.40;;;;;;5014530;28;20387;-72
2021/05/27 07:34:52;;;;;;;;;;;12.40;88.90;;;;;;5018361;28;20488;-71
2021/05/27 07:37:18;;;;;;;7.65;2.00;;;12.40;89.20;;;;;;5017744;28;19924;-72
2021/05/27 07:39:43;;;;;;;4.38;0.70;;;12.40;89.10;;;;;;5015516;28;20030;-72
2021/05/27 07:42:10;;;;;;;;;;;12.40;89.40;;;;;;5019166;28;20392;-72
2021/05/27 07:44:36;;;;;;;19.33;2.17;;;12.30;88.90;;;;;;5016888;28;19920;-72
2021/05/27 07:47:02;;;;;;;24.08;2.92;;;12.30;89.60;;;;;;5016056;28;20091;-72
2021/05/27 07:49:28;;;;;;;15.77;1.77;;;12.30;90.00;;;;;;5017131;28;20729;-72
2021/05/27 07:51:57;;;;;;;;;;;12.30;90.20;;;;;;5015996;28;20912;-71
2021/05/27 07:54:23;;;;;;;18.90;2.00;;;12.30;90.20;;;;;;5016891;28;19978;-71
2021/05/27 07:56:49;;;;;;;16.80;1.75;;;12.30;90.30;;;;;;5017964;28;20128;-71
2021/05/27 07:59:14;;;;;;;;;;;12.30;90.20;;;;;;5016632;28;20033;-71
2021/05/27 08:01:41;;;;;;;16.80;1.67;;;12.20;89.90;;;;;;5016174;28;19917;-71
2021/05/27 08:04:07;;;;;;;5.25;1.48;;;12.20;89.80;;;;;;5016337;28;20044;-70
2021/05/27 08:06:32;;;;;;;;;;;12.20;90.10;;;;;;5016270;28;20030;-70
2021/05/27 08:08:58;;;;;;;16.00;1.88;;;12.20;90.30;;;;;;5015433;28;19948;-70
2021/05/27 08:11:23;;;;;;;;;;;12.20;90.20;;;;;;5032519;28;20037;-71
2021/05/27 08:13:49;;;;;;;18.80;2.08;;;12.30;90.20;;;;;;5016952;28;20364;-71
2021/05/27 08:16:14;;;;;;;;;;;12.40;90.20;;;;;;5011832;28;20543;-69
2021/05/27 08:18:40;;;;;;;51.92;4.85;;;12.60;89.30;;;;;;5016224;28;20335;-69
2021/05/27 08:21:06;;;;;;;;;;;12.70;89.30;;;;;;5017086;28;20127;-71
2021/05/27 08:23:32;;;;;;;18.35;1.83;;;12.90;88.60;;;;;;5015803;28;19921;-71
2021/05/27 08:25:57;;;;;;;;;;;13.20;87.60;;;;;;5016120;28;20034;-70
2021/05/27 08:28:23;;;;;;;19.05;2.00;;;13.50;84.70;;;;;;5016594;28;19917;-70
2021/05/27 08:30:48;;;;;;;;;;;13.60;84.70;;;;;;5014795;28;20026;-71
2021/05/27 08:33:14;;;;;;;3.85;0.60;;;13.70;84.10;;;;;;5018162;28;20011;-70
2021/05/27 08:35:40;;;;;;;;;;;13.70;83.40;;;;;;5001585;28;20053;-70
2021/05/27 08:38:05;;;;;;;5.80;1.35;;;13.80;83.20;;;;;;5017546;28;19913;-70
2021/05/27 08:40:31;;;;;;;;;;;13.90;83.10;;;;;;5035188;28;20124;-70
2021/05/27 08:42:58;;;;;;;1.02;0.45;;;13.80;82.80;;;;;;5021495;28;20375;-70
2021/05/27 08:45:28;;;;;;;1.30;0.55;;;13.70;83.90;;;;;;5017200;28;20115;-70
2021/05/27 08:47:54;;;;;;;7.95;0.73;;;13.60;84.70;;;;;;5019268;28;20080;-70
2021/05/27 08:50:29;;;;;;;;;;;13.60;85.80;;;;;;5021884;28;20017;-70
2021/05/27 08:52:55;;;;;;;3.00;0.60;;;13.60;85.70;;;;;;5019373;28;19948;-71
2021/05/27 08:55:20;;;;;;;;;;;13.60;85.90;;;;;;5019617;28;20053;-71
2021/05/27 08:57:45;;;;;;;4.80;0.60;;;13.50;85.40;;;;;;5036430;28;19955;-69
2021/05/27 09:00:11;;;;;;;;;;;13.40;84.10;;;;;;5034287;28;20167;-71
2021/05/27 09:02:59;;;;;;;1.40;0.30;;;13.40;83.80;;;;;;5017972;28;19921;-71
2021/05/27 09:05:25;;;;;;;3.15;0.75;;;13.30;84.20;;;;;;5018181;28;20040;-71
2021/05/27 09:07:51;;;;;;;;;;;13.20;85.20;;;;;;5003774;28;20025;-71
2021/05/27 09:10:17;;;;;;;1.80;0.75;;;13.30;86.30;;;;;;5019172;28;19936;-70
2021/05/27 09:12:42;;;;;;;;;;;13.40;85.40;;;;;;5019237;28;20030;-70
2021/05/27 09:15:17;;;;;;;2.17;0.50;;;13.50;84.50;;;;;;5020562;28;19967;-71
2021/05/27 09:17:45;;;;;;;0.77;0.52;;;13.50;85.30;;;;;;5019289;28;20036;-71
2021/05/27 09:20:20;;;;;;;2.75;0.35;;;13.50;85.10;;;;;;5016220;28;20034;-71
2021/05/27 09:22:46;;;;;;;1.60;0.50;;;13.50;84.50;;;;;;5019111;28;20029;-71
2021/05/27 09:25:25;;;;;;;1.65;0.40;;;13.50;85.00;;;;;;5018924;28;20443;-70
2021/05/27 09:27:50;;;;;;;2.63;0.40;;;13.60;83.60;;;;;;5033315;28;20392;-70
2021/05/27 09:30:16;;;;;;;;;;;13.50;82.60;;;;;;5019852;28;20022;-70
2021/05/27 09:32:46;;;;;;;7.57;0.40;;;13.50;82.40;;;;;;5019459;28;20368;-70
2021/05/27 09:35:13;;;;;;;3.13;0.32;;;13.50;82.30;;;;;;5002810;28;20029;-70
2021/05/27 09:37:44;;;;;;;3.95;0.45;;;13.60;81.70;;;;;;5017095;28;20124;-71
2021/05/27 09:40:10;;;;;;;11.35;1.58;;;13.50;81.80;;;;;;5017122;28;20117;-71
2021/05/27 09:42:49;;;;;;;;;;;13.40;82.30;;;;;;5019760;28;20038;-71
2021/05/27 09:45:19;;;;;;;5.60;1.00;;;13.40;82.30;;;;;;5018985;28;19921;-70
2021/05/27 09:47:45;;;;;;;2.83;0.60;;;13.40;82.90;;;;;;5020471;28;20032;-69
2021/05/27 09:50:11;;;;;;;;;;;13.40;83.40;;;;;;5017786;28;20026;-70
2021/05/27 09:52:45;;;;;;;4.82;1.17;;;13.30;85.40;;;;;;5019091;28;19919;-70
2021/05/27 09:55:15;;;;;;;10.38;1.02;;;13.30;86.70;;;;;;5015520;28;20160;-70
2021/05/27 09:57:42;;;;;;;4.97;0.70;;;13.20;86.80;;;;;;5020095;28;20072;-70
2021/05/27 10:00:24;;;;;;;13.32;0.90;;;13.10;87.20;;;;;;5018813;28;20033;-69
2021/05/27 10:02:50;;;;;;;4.18;0.85;;;13.10;88.00;;;;;;5018693;28;20033;-69
2021/05/27 10:05:16;;;;;;;;;;;13.00;88.00;;;;;;5016950;28;20036;-70
2021/05/27 10:07:44;;;;;;;2.92;0.40;;;12.90;88.20;;;;;;5019457;28;19910;-70
2021/05/27 10:10:12;;;;;;;3.63;0.70;;;12.80;89.00;;;;;;5016241;28;20031;-70
2021/05/27 10:12:40;;;;;;;0.93;0.60;;;12.80;89.60;;;;;;5018822;28;20025;-70
2021/05/27 10:15:09;;;;;;;3.08;0.80;;;12.80;90.10;;;;;;5020122;28;20037;-70
2021/05/27 10:17:37;;;;;;;19.42;2.28;;;12.70;90.20;;;;;;5019661;28;20392;-70
2021/05/27 10:20:05;;;;;;;7.03;0.75;;;12.70;90.70;;;;;;5016398;28;20079;-70
2021/05/27 10:22:30;;;;;;;11.68;1.23;;;12.60;90.60;;;;;;5017962;28;20038;-70
2021/05/27 10:24:57;;;;;;;;;;;12.60;90.80;;;;;;5019294;28;20479;-70
2021/05/27 10:27:22;;;;;;;10.98;1.02;;;12.60;90.80;;;;;;5012975;28;19976;-70
2021/05/27 10:29:48;;;;;;;;;;;12.50;90.80;;;;;;5018247;28;20029;-69
2021/05/27 10:32:16;;;;;;;3.05;0.60;;;12.50;90.80;;;;;;5034440;28;19910;-70
2021/05/27 10:34:46;;;;;;;11.95;1.23;;;12.60;91.00;;;;;;5019120;28;20017;-70
2021/05/27 10:37:13;;;;;;;11.15;1.20;;;12.80;90.80;;;;;;5019624;28;20036;-70
2021/05/27 10:39:39;;;;;;;5.15;0.63;;;13.00;90.60;;;;;;5016846;28;20049;-69
2021/05/27 10:42:05;;;;;;;;;;;13.10;90.30;;;;;;5001771;28;20033;-74
2021/05/27 10:44:31;;;;;;;37.67;2.58;;;13.20;89.80;;;;;;5016999;28;19921;-76
2021/05/27 10:46:56;;;;;;;;;;;13.30;87.80;;;;;;5015247;28;20033;-77
2021/05/27 10:49:41;;;;;;;14.55;2.08;;;13.20;87.70;;;;;;5017605;28;19909;-76
2021/05/27 10:52:29;;;;;;;8.88;0.82;;;13.30;88.00;;;;;;5017739;28;20018;-75
2021/05/27 10:54:55;;;;;;;4.47;0.55;;;13.30;88.20;;;;;;5018424;28;20055;-74
2021/05/27 10:57:39;;;;;;;3.15;0.60;;;13.40;87.80;;;;;;5016390;28;20040;-74
2021/05/27 11:00:30;;;;;;;8.80;1.38;;;13.50;86.50;;;;;;5016883;28;20038;-74
2021/05/27 11:03:16;;;;;;;4.57;0.93;;;13.50;86.20;;;;;;5014837;28;20492;-74
2021/05/27 11:06:01;;;;;;;10.68;1.15;;;13.70;85.10;;;;;;5018522;28;20048;-74
2021/05/27 11:08:27;;;;;;;7.75;0.63;;;13.70;85.40;;;;;;5017511;28;20174;-74
2021/05/27 11:10:52;;;;;;;;;;;13.80;85.80;;;;;;5012608;28;20508;-75
2021/05/27 11:13:18;;;;;;;3.17;0.43;;;13.70;85.60;;;;;;5017619;28;19913;-74
2021/05/27 11:16:09;;;;;;;;;;;13.70;85.20;;;;;;5018500;28;20026;-74
2021/05/27 11:18:37;;;;;;;5.68;0.88;;;13.70;84.90;;;;;;5016253;28;20272;-75
2021/05/27 11:21:35;;;;;;;4.55;1.15;;;13.80;84.70;;;;;;5018220;28;20113;-73
2021/05/27 11:27:26;;;;;;;2.53;0.80;;;13.80;84.80;;;;;;5015007;28;20465;-74
2021/05/27 11:30:17;;;;;;;2.67;0.60;;;13.80;84.50;;;;;;5016849;28;20025;-73
2021/05/27 11:32:59;;;;;;;7.57;0.60;;;13.90;84.50;;;;;;5017858;28;20064;-73
2021/05/27 11:35:30;;;;;;;6.32;0.80;;;14.10;83.50;;;;;;5017422;28;20095;-73
2021/05/27 11:37:56;;;;;;;3.92;0.30;;;14.30;82.30;;;;;;5016144;28;20592;-73
2021/05/27 11:40:30;;;;;;;2.10;0.68;;;14.50;81.60;;;;;;5017545;28;20030;-72
2021/05/27 11:42:56;;;;;;;14.65;1.25;;;14.70;81.10;;;;;;5016363;28;20116;-72
2021/05/27 11:45:25;;;;;;;;;;;14.90;80.50;;;;;;5017434;28;20116;-70
2021/05/27 11:48:17;;;;;;;3.65;1.35;;;15.10;80.40;;;;;;5018719;28;20519;-70
2021/05/27 11:50:43;;;;;;;12.77;1.08;;;15.30;79.70;;;;;;5017171;28;20038;-69
2021/05/27 11:53:09;;;;;;;2.60;1.00;;;15.50;79.00;;;;;;5032341;28;20026;-70
2021/05/27 11:55:35;;;;;;;10.05;0.82;;;15.60;79.00;;;;;;5015802;28;20021;-69
2021/05/27 11:58:01;;;;;;;;;;;15.60;77.70;;;;;;5016588;28;20072;-70
2021/05/27 12:00:27;;;;;;;18.15;2.10;;;15.80;77.00;;;;;;5018587;28;20537;-71
2021/05/27 12:02:59;;;;;;;1.00;0.68;;;15.90;77.00;;;;;;5000270;28;20030;-70
2021/05/27 12:05:35;;;;;;;3.60;0.90;;;16.10;75.50;;;;;;5016724;28;20080;-70
2021/05/27 12:08:06;;;;;;;8.32;0.90;;;16.10;74.40;;;;;;5017381;28;20044;-69
2021/05/27 12:10:34;;;;;;;11.30;0.70;;;16.20;74.70;;;;;;5000902;28;20144;-70
2021/05/27 12:13:00;;;;;;;2.30;0.60;;;16.20;74.70;;;;;;5017953;28;20035;-68
2021/05/27 12:15:28;;;;;;;1.77;0.85;;;16.10;74.50;;;;;;5021403;28;20022;-68
2021/05/27 12:17:57;;;;;;;0.65;0.32;;;16.10;74.50;;;;;;5017941;28;20369;-69
2021/05/27 12:20:40;;;;;;;2.72;0.43;;;16.00;74.40;;;;;;5017352;28;20061;-69
2021/05/27 12:23:12;;;;;;;3.97;0.50;;;15.90;74.60;;;;;;5021158;28;20519;-70
2021/05/27 12:25:42;;;;;;;1.77;0.40;;;15.90;73.30;;;;;;5020645;28;20104;-69
2021/05/27 12:28:17;;;;;;;0.80;0.40;;;15.90;72.90;;;;;;5004131;28;20114;-70
2021/05/27 12:30:45;;;;;;;4.53;0.60;;;16.00;72.90;;;;;;5018306;28;20029;-70
2021/05/27 12:33:16;;;;;;;8.57;1.10;;;15.90;73.20;;;;;;5034364;28;20053;-69
2021/05/27 12:35:42;;;;;;;13.55;1.00;;;15.70;73.80;;;;;;5020445;28;20040;-70
2021/05/27 12:38:20;;;;;;;6.50;0.60;;;15.50;76.10;;;;;;5019309;28;20033;-69
2021/05/27 12:40:51;;;;;;;15.13;1.17;;;15.30;78.30;;;;;;5019893;28;20036;-70
2021/05/27 12:43:40;;;;;;;13.55;1.70;;;15.00;81.20;;;;;;5021040;28;20278;-70
2021/05/27 12:46:08;;;;;;;14.00;1.20;;;14.90;81.70;;;;;;5018512;28;20030;-69
2021/05/27 12:48:50;;;;;;;6.18;0.60;;;14.80;81.10;;;;;;5003947;28;20029;-69
2021/05/27 12:51:16;;;;;;;4.35;0.65;;;14.70;82.10;;;;;;5018939;28;20489;-71
2021/05/27 12:53:54;;;;;;;14.50;1.77;;;14.70;82.80;;;;;;5021136;28;20065;-68
2021/05/27 12:56:28;;;;;;;9.52;1.17;;;14.80;82.10;;;;;;5017087;28;20088;-70
2021/05/27 12:59:07;;;;;;;7.57;0.80;;;14.90;80.00;;;;;;5019657;28;20539;-71
2021/05/27 13:01:45;;;;;;;3.72;0.75;;;15.10;79.80;;;;;;5035402;28;20037;-74
2021/05/27 13:04:31;;;;;;;2.60;0.63;;;15.30;78.50;;;;;;5019725;28;20197;-72
2021/05/27 13:07:14;;;;;;;4.70;0.88;;;15.40;77.70;;;;;;5019923;28;20029;-72
2021/05/27 13:09:54;;;;;;;1.30;0.60;;;15.50;77.40;;;;;;5019508;28;20468;-71
2021/05/27 13:12:21;;;;;;;0.82;0.50;;;15.50;76.40;;;;;;5002384;28;20034;-71
2021/05/27 13:15:09;;;;;;;4.10;1.23;;;15.50;76.40;;;;;;5033693;28;20057;-75
2021/05/27 13:17:35;;;;;;;9.27;1.80;;;15.50;75.80;;;;;;5004210;28;20041;-74
2021/05/27 13:20:03;;;;;;;4.68;0.70;;;15.50;76.50;;;;;;5017236;28;20037;-74
2021/05/27 13:22:33;;;;;;;0.75;0.35;;;15.60;75.80;;;;;;5034927;28;20041;-74
2021/05/27 13:25:10;;;;;;;4.25;0.80;;;15.60;75.40;;;;;;5003299;28;20409;-73
2021/05/27 13:27:49;;;;;;;2.28;0.57;;;15.50;75.20;;;;;;5018603;28;20026;-69